Time;durP1;ratioP1;P1;durP2;ratioP2;P2;SDS_P1;SDS_P2;PMS_P1;PMS_P2;Temp;Humidity;BMP_temperature;BMP_pressure;BME280_temperature;BME280_humidity;BME280_pressure;Samples;Min_cycle;Max_cycle;Signal;HPM_P1;HPM_P2
2022/06/27 00:00:44;;;;;;;9.32;5.68;;;;;;;;;;5025829;28;20083;-56
2022/06/27 00:03:10;;;;;;;7.70;6.45;;;;;;;;;;5028962;28;20124;-56
2022/06/27 00:05:35;;;;;;;10.15;6.30;;;;;;;;;;5030723;28;20348;-56
2022/06/27 00:08:01;;;;;;;8.88;5.88;;;;;;;;;;5035089;28;20035;-56
2022/06/27 00:10:26;;;;;;;8.93;6.22;;;;;;;;;;5031905;28;20029;-56
2022/06/27 00:12:52;;;;;;;10.02;6.28;;;;;;;;;;5029853;28;20134;-56
2022/06/27 00:15:17;;;;;;;8.82;5.60;;;;;;;;;;5032314;28;20038;-56
2022/06/27 00:17:43;;;;;;;6.15;5.43;;;;;;;;;;5025741;28;20030;-56
2022/06/27 00:20:09;;;;;;;8.25;5.30;;;;;;;;;;5039391;28;20546;-56
2022/06/27 00:22:34;;;;;;;6.70;5.22;;;;;;;;;;5024750;28;20059;-56
2022/06/27 00:25:00;;;;;;;7.93;5.72;;;;;;;;;;5025353;28;20034;-56
2022/06/27 00:27:25;;;;;;;6.75;5.30;;;;;;;;;;5028771;28;20040;-57
2022/06/27 00:29:51;;;;;;;5.78;5.10;;;;;;;;;;5024614;28;20033;-57
2022/06/27 00:32:17;;;;;;;5.53;4.78;;;;;;;;;;5030252;28;20037;-57
2022/06/27 00:34:43;;;;;;;8.35;4.82;;;;;;;;;;5023374;28;20319;-57
2022/06/27 00:37:08;;;;;;;5.60;4.80;;;;;;;;;;5028776;28;20120;-58
2022/06/27 00:39:34;;;;;;;5.68;4.68;;;;;;;;;;5029672;28;20029;-57
2022/06/27 00:41:59;;;;;;;6.18;4.60;;;;;;;;;;5028632;28;20048;-57
2022/06/27 00:44:42;;;;;;;8.48;4.57;;;;;;;;;;5029172;28;20017;-57
2022/06/27 00:47:11;;;;;;;6.32;4.57;;;;;;;;;;5030533;28;20036;-57
2022/06/27 00:49:37;;;;;;;5.72;5.15;;;;;;;;;;5030734;28;20053;-57
2022/06/27 00:52:05;;;;;;;5.75;4.00;;;;;;;;;;5030305;28;20506;-57
2022/06/27 00:54:30;;;;;;;6.25;4.45;;;;;;;;;;5028626;28;20033;-57
2022/06/27 00:56:56;;;;;;;8.00;4.28;;;;;;;;;;5026604;28;20040;-56
2022/06/27 00:59:22;;;;;;;5.55;4.30;;;;;;;;;;5030800;28;20082;-57
2022/06/27 01:01:48;;;;;;;10.57;5.10;;;;;;;;;;5032782;28;20095;-57
2022/06/27 01:04:14;;;;;;;7.53;4.03;;;;;;;;;;5025050;28;20443;-57
2022/06/27 01:06:39;;;;;;;6.55;3.90;;;;;;;;;;5024647;28;20032;-57
2022/06/27 01:09:05;;;;;;;3.58;2.45;;;;;;;;;;5024456;28;20036;-56
2022/06/27 01:11:31;;;;;;;3.60;2.30;;;;;;;;;;5024819;28;20033;-56
2022/06/27 01:13:57;;;;;;;4.45;1.70;;;;;;;;;;5023994;28;20068;-57
2022/06/27 01:16:23;;;;;;;3.72;1.80;;;;;;;;;;5025742;28;20076;-57
2022/06/27 01:18:49;;;;;;;4.65;2.45;;;;;;;;;;5036829;28;20021;-57
2022/06/27 01:21:25;;;;;;;3.85;2.45;;;;;;;;;;5032233;28;20049;-58
2022/06/27 01:23:51;;;;;;;4.35;2.33;;;;;;;;;;5019032;28;20018;-57
2022/06/27 01:26:20;;;;;;;4.03;2.42;;;;;;;;;;5025704;28;20029;-57
2022/06/27 01:28:46;;;;;;;4.90;2.08;;;;;;;;;;5025721;28;20045;-57
2022/06/27 01:31:15;;;;;;;3.10;1.90;;;;;;;;;;5024137;28;20029;-57
2022/06/27 01:33:41;;;;;;;2.50;1.52;;;;;;;;;;5026645;28;20557;-57
2022/06/27 01:38:55;;;;;;;4.07;1.55;;;;;;;;;;5023411;28;20131;-56
2022/06/27 01:41:20;;;;;;;4.78;1.90;;;;;;;;;;5028548;28;20076;-57
2022/06/27 01:43:48;;;;;;;3.15;2.30;;;;;;;;;;5028847;28;20111;-57
2022/06/27 01:46:13;;;;;;;2.63;1.60;;;;;;;;;;5031492;28;20044;-57
2022/06/27 01:48:39;;;;;;;3.72;1.40;;;;;;;;;;5032419;28;20363;-57
2022/06/27 01:51:08;;;;;;;3.50;1.60;;;;;;;;;;5026557;28;20044;-57
2022/06/27 01:53:34;;;;;;;2.43;1.50;;;;;;;;;;5029062;28;20037;-57
2022/06/27 01:56:00;;;;;;;2.00;1.40;;;;;;;;;;5029854;28;20029;-57
2022/06/27 01:58:25;;;;;;;2.42;1.30;;;;;;;;;;5035590;28;20031;-57
2022/06/27 02:00:51;;;;;;;5.35;1.55;;;;;;;;;;5024967;28;20043;-57
2022/06/27 02:03:17;;;;;;;4.00;1.00;;;;;;;;;;5030924;28;20483;-57
2022/06/27 02:05:44;;;;;;;1.65;1.00;;;;;;;;;;5024006;28;20061;-57
2022/06/27 02:08:10;;;;;;;2.45;1.40;;;;;;;;;;5034666;28;20029;-57
2022/06/27 02:10:36;;;;;;;2.67;1.10;;;;;;;;;;5028504;28;20040;-57
2022/06/27 02:13:02;;;;;;;3.33;1.08;;;;;;;;;;5030283;28;20112;-57
2022/06/27 02:15:28;;;;;;;2.03;1.15;;;;;;;;;;5023836;28;20041;-57
2022/06/27 02:17:53;;;;;;;2.28;1.10;;;;;;;;;;5032237;28;20033;-57
2022/06/27 02:20:19;;;;;;;2.50;1.02;;;;;;;;;;5027229;28;20033;-57
2022/06/27 02:22:44;;;;;;;1.90;1.42;;;;;;;;;;5029572;28;20599;-59
2022/06/27 02:25:10;;;;;;;2.67;1.10;;;;;;;;;;5027395;28;20506;-57
2022/06/27 02:27:36;;;;;;;1.15;0.93;;;;;;;;;;5032144;28;20037;-57
2022/06/27 02:30:02;;;;;;;2.03;1.10;;;;;;;;;;5030593;28;20068;-56
2022/06/27 02:32:28;;;;;;;1.45;1.15;;;;;;;;;;5028713;28;20112;-56
2022/06/27 02:34:56;;;;;;;1.35;1.10;;;;;;;;;;5031279;28;20108;-57
2022/06/27 02:37:24;;;;;;;3.28;1.00;;;;;;;;;;5030839;28;20029;-56
2022/06/27 02:39:51;;;;;;;1.45;1.05;;;;;;;;;;5029544;28;20037;-56
2022/06/27 02:42:19;;;;;;;2.53;1.23;;;;;;;;;;5029113;28;20029;-57
2022/06/27 02:44:48;;;;;;;2.90;1.20;;;;;;;;;;5029109;28;20695;-56
2022/06/27 02:47:14;;;;;;;1.83;1.38;;;;;;;;;;5032508;28;20037;-57
2022/06/27 02:49:40;;;;;;;2.10;1.10;;;;;;;;;;5031651;28;20150;-56
2022/06/27 02:52:18;;;;;;;2.25;1.15;;;;;;;;;;5028244;28;20483;-57
2022/06/27 02:55:02;;;;;;;5.82;1.60;;;;;;;;;;5029602;28;20037;-56
2022/06/27 02:57:52;;;;;;;1.67;1.05;;;;;;;;;;5029810;28;20517;-56
2022/06/27 03:00:18;;;;;;;1.55;1.15;;;;;;;;;;5025303;28;20033;-56
2022/06/27 03:02:44;;;;;;;2.13;1.10;;;;;;;;;;5028083;28;20021;-57
2022/06/27 03:05:10;;;;;;;1.58;1.10;;;;;;;;;;5036959;28;20028;-56
2022/06/27 03:07:39;;;;;;;2.13;1.08;;;;;;;;;;5026237;28;20523;-56
2022/06/27 03:10:05;;;;;;;2.17;1.00;;;;;;;;;;5034734;28;20021;-57
2022/06/27 03:12:31;;;;;;;2.03;1.10;;;;;;;;;;5034570;28;20109;-57
2022/06/27 03:14:56;;;;;;;1.60;1.00;;;;;;;;;;5028194;28;20107;-57
2022/06/27 03:17:22;;;;;;;1.48;1.13;;;;;;;;;;5027500;28;20025;-56
2022/06/27 03:19:50;;;;;;;2.92;1.05;;;;;;;;;;5025735;28;20026;-57
2022/06/27 03:22:16;;;;;;;1.85;0.93;;;;;;;;;;5028683;28;20045;-56
2022/06/27 03:24:41;;;;;;;2.40;1.60;;;;;;;;;;5024764;28;20059;-56
2022/06/27 03:27:07;;;;;;;3.13;1.80;;;;;;;;;;5024884;28;20410;-56
2022/06/27 03:29:32;;;;;;;3.65;1.65;;;;;;;;;;5028150;28;20107;-56
2022/06/27 03:31:57;;;;;;;1.77;1.40;;;;;;;;;;5025658;28;20028;-56
2022/06/27 03:34:23;;;;;;;1.90;1.30;;;;;;;;;;5031772;28;20525;-56
2022/06/27 03:36:49;;;;;;;1.55;1.20;;;;;;;;;;5029390;28;20036;-57
2022/06/27 03:39:14;;;;;;;2.42;1.90;;;;;;;;;;5032690;28;20033;-56
2022/06/27 03:41:40;;;;;;;3.28;1.67;;;;;;;;;;5030266;28;20212;-56
2022/06/27 03:44:08;;;;;;;3.80;2.33;;;;;;;;;;5028546;28;20026;-55
2022/06/27 03:46:37;;;;;;;2.13;1.20;;;;;;;;;;5033948;28;20029;-57
2022/06/27 03:51:48;;;;;;;1.20;0.90;;;;;;;;;;5026887;28;20143;-57
2022/06/27 03:54:13;;;;;;;1.27;0.85;;;;;;;;;;5032475;28;20039;-57
2022/06/27 03:56:39;;;;;;;1.83;1.15;;;;;;;;;;5030314;28;20025;-57
2022/06/27 03:59:04;;;;;;;1.45;1.10;;;;;;;;;;5028051;28;20075;-56
2022/06/27 04:01:29;;;;;;;1.38;1.00;;;;;;;;;;5024475;28;20034;-57
2022/06/27 04:03:55;;;;;;;2.08;1.00;;;;;;;;;;5027416;28;20124;-57
2022/06/27 04:06:20;;;;;;;2.08;0.90;;;;;;;;;;5033790;28;20029;-57
2022/06/27 04:08:46;;;;;;;2.67;0.95;;;;;;;;;;5034453;28;20064;-57
2022/06/27 04:11:11;;;;;;;1.98;0.90;;;;;;;;;;5023040;28;20017;-57
2022/06/27 04:13:37;;;;;;;2.30;1.08;;;;;;;;;;5025071;28;20069;-56
2022/06/27 04:16:03;;;;;;;5.15;1.40;;;;;;;;;;5035832;28;20483;-57
2022/06/27 04:18:28;;;;;;;1.30;1.00;;;;;;;;;;5028403;28;20061;-57
2022/06/27 04:20:53;;;;;;;2.58;1.10;;;;;;;;;;5023872;28;20037;-57
2022/06/27 04:23:19;;;;;;;1.70;0.82;;;;;;;;;;5024569;28;20101;-55
2022/06/27 04:25:44;;;;;;;1.50;1.10;;;;;;;;;;5025289;28;20490;-56
2022/06/27 04:28:10;;;;;;;3.05;1.10;;;;;;;;;;5030058;28;20048;-56
2022/06/27 04:30:35;;;;;;;3.90;1.20;;;;;;;;;;5025826;28;20095;-55
2022/06/27 04:33:01;;;;;;;2.22;1.10;;;;;;;;;;5029569;28;20067;-56
2022/06/27 04:35:27;;;;;;;2.63;0.85;;;;;;;;;;5030465;28;20511;-56
2022/06/27 04:37:53;;;;;;;4.05;1.20;;;;;;;;;;5029718;28;20082;-56
2022/06/27 04:40:19;;;;;;;2.25;1.20;;;;;;;;;;5028620;28;20078;-56
2022/06/27 04:42:48;;;;;;;3.40;1.48;;;;;;;;;;5026788;28;20060;-56
2022/06/27 04:45:15;;;;;;;2.03;1.17;;;;;;;;;;5026863;28;20033;-56
2022/06/27 04:47:41;;;;;;;3.13;1.25;;;;;;;;;;5026068;28;20033;-56
2022/06/27 04:50:09;;;;;;;1.70;1.17;;;;;;;;;;5028968;28;20029;-57
2022/06/27 04:52:37;;;;;;;3.20;1.30;;;;;;;;;;5025517;28;20323;-56
2022/06/27 04:55:07;;;;;;;1.52;1.08;;;;;;;;;;5030370;28;20061;-56
2022/06/27 04:57:32;;;;;;;3.80;1.00;;;;;;;;;;5030699;28;20022;-56
2022/06/27 04:59:58;;;;;;;2.90;1.08;;;;;;;;;;5033983;28;20103;-56
2022/06/27 05:02:23;;;;;;;3.35;1.10;;;;;;;;;;5028983;28;20439;-57
2022/06/27 05:04:49;;;;;;;2.35;1.17;;;;;;;;;;5025735;28;20475;-57
2022/06/27 05:07:14;;;;;;;2.70;0.98;;;;;;;;;;5030566;28;20029;-57
2022/06/27 05:09:39;;;;;;;3.28;1.05;;;;;;;;;;5024220;28;20068;-57
2022/06/27 05:12:05;;;;;;;4.43;1.35;;;;;;;;;;5028506;28;20112;-57
2022/06/27 05:14:30;;;;;;;12.95;6.30;;;;;;;;;;5028946;28;20079;-57
2022/06/27 05:16:56;;;;;;;6.35;2.80;;;;;;;;;;5022432;28;20501;-57
2022/06/27 05:19:21;;;;;;;2.55;1.50;;;;;;;;;;5022513;28;20021;-57
2022/06/27 05:21:47;;;;;;;4.10;1.60;;;;;;;;;;5027212;28;20143;-57
2022/06/27 05:24:12;;;;;;;21.15;7.72;;;;;;;;;;5027357;28;20381;-57
2022/06/27 05:26:38;;;;;;;2.80;1.67;;;;;;;;;;5026550;28;20447;-57
2022/06/27 05:29:04;;;;;;;2.30;0.95;;;;;;;;;;5028664;28;20036;-57
2022/06/27 05:31:29;;;;;;;1.80;0.93;;;;;;;;;;5028393;28;20496;-57
2022/06/27 05:33:55;;;;;;;2.75;1.30;;;;;;;;;;5030040;28;20017;-57
2022/06/27 05:36:21;;;;;;;1.27;1.00;;;;;;;;;;5027680;28;20045;-58
2022/06/27 05:38:48;;;;;;;1.50;1.38;;;;;;;;;;5023153;28;20403;-57
2022/06/27 05:41:14;;;;;;;3.10;1.50;;;;;;;;;;5027477;28;20033;-57
2022/06/27 05:43:40;;;;;;;2.53;1.30;;;;;;;;;;5026255;28;20014;-57
2022/06/27 05:46:06;;;;;;;2.25;1.50;;;;;;;;;;5030872;28;20088;-57
2022/06/27 05:48:32;;;;;;;3.50;1.40;;;;;;;;;;5026482;28;20030;-57
2022/06/27 05:50:59;;;;;;;5.45;1.70;;;;;;;;;;5023850;28;20411;-54
2022/06/27 05:53:27;;;;;;;2.47;1.70;;;;;;;;;;5024110;28;20127;-54
2022/06/27 05:55:53;;;;;;;2.22;1.80;;;;;;;;;;5029475;28;20055;-54
2022/06/27 05:58:18;;;;;;;3.45;1.67;;;;;;;;;;5021844;28;20029;-53
2022/06/27 06:00:44;;;;;;;2.72;1.65;;;;;;;;;;5026783;28;20021;-53
2022/06/27 06:03:09;;;;;;;5.07;2.22;;;;;;;;;;5024211;28;20036;-54
2022/06/27 06:05:35;;;;;;;8.15;2.75;;;;;;;;;;5028192;28;20132;-54
2022/06/27 06:08:05;;;;;;;5.40;2.90;;;;;;;;;;5029653;28;20044;-55
2022/06/27 06:10:32;;;;;;;2.35;1.65;;;;;;;;;;5020238;28;20605;-54
2022/06/27 06:12:58;;;;;;;1.90;1.40;;;;;;;;;;5025047;28;20041;-55
2022/06/27 06:15:24;;;;;;;1.90;1.70;;;;;;;;;;5029393;28;20100;-54
2022/06/27 06:17:49;;;;;;;1.73;1.60;;;;;;;;;;5020487;28;20514;-57
2022/06/27 06:20:15;;;;;;;1.50;1.40;;;;;;;;;;5024278;28;20033;-57
2022/06/27 06:22:41;;;;;;;4.18;2.00;;;;;;;;;;5020982;28;20037;-57
2022/06/27 06:25:07;;;;;;;2.53;1.20;;;;;;;;;;5013927;28;20495;-57
2022/06/27 06:27:35;;;;;;;1.40;1.30;;;;;;;;;;5027286;28;20300;-57
2022/06/27 06:30:02;;;;;;;4.10;1.60;;;;;;;;;;5023877;28;20064;-57
2022/06/27 06:32:28;;;;;;;2.55;1.50;;;;;;;;;;5027537;28;20487;-57
2022/06/27 06:34:54;;;;;;;5.05;1.70;;;;;;;;;;5028707;28;20037;-57
2022/06/27 06:37:19;;;;;;;3.15;1.88;;;;;;;;;;5028755;28;20628;-57
2022/06/27 06:39:45;;;;;;;2.72;1.70;;;;;;;;;;5021136;28;20044;-57
2022/06/27 06:42:11;;;;;;;4.20;1.95;;;;;;;;;;5026698;28;20069;-57
2022/06/27 06:44:37;;;;;;;6.22;2.05;;;;;;;;;;5024751;28;20029;-57
2022/06/27 06:47:03;;;;;;;3.50;1.95;;;;;;;;;;5028610;28;20037;-57
2022/06/27 06:49:29;;;;;;;2.63;2.13;;;;;;;;;;5020403;28;20034;-57
2022/06/27 06:51:54;;;;;;;3.15;2.08;;;;;;;;;;5025060;28;20166;-57
2022/06/27 06:54:20;;;;;;;5.18;2.40;;;;;;;;;;5021895;28;20503;-57
2022/06/27 06:56:49;;;;;;;3.97;2.35;;;;;;;;;;5027903;28;20018;-57
2022/06/27 06:59:16;;;;;;;3.42;2.47;;;;;;;;;;5027061;28;20029;-57
2022/06/27 07:01:43;;;;;;;5.40;1.80;;;;;;;;;;5024302;28;20036;-57
2022/06/27 07:04:09;;;;;;;5.82;1.98;;;;;;;;;;5019248;28;20041;-57
2022/06/27 07:06:35;;;;;;;4.85;2.25;;;;;;;;;;5024826;28;20026;-57
2022/06/27 07:09:01;;;;;;;5.22;2.42;;;;;;;;;;5020984;28;20574;-57
2022/06/27 07:11:28;;;;;;;3.58;1.85;;;;;;;;;;5022320;28;20037;-57
2022/06/27 07:13:55;;;;;;;3.75;2.40;;;;;;;;;;5023237;28;20500;-57
2022/06/27 07:16:21;;;;;;;6.15;2.00;;;;;;;;;;5016727;28;20025;-57
2022/06/27 07:18:48;;;;;;;3.45;1.90;;;;;;;;;;5019528;28;20035;-57
2022/06/27 07:21:19;;;;;;;2.00;1.80;;;;;;;;;;5014121;28;20033;-56
2022/06/27 07:23:48;;;;;;;2.85;1.90;;;;;;;;;;5016538;28;20033;-57
2022/06/27 07:26:19;;;;;;;2.75;2.20;;;;;;;;;;5016311;28;20033;-58
2022/06/27 07:28:45;;;;;;;4.43;1.90;;;;;;;;;;5021048;28;20026;-57
2022/06/27 07:31:14;;;;;;;2.28;1.80;;;;;;;;;;5016455;28;20040;-57
2022/06/27 07:33:41;;;;;;;3.22;1.90;;;;;;;;;;5016728;28;20525;-57
2022/06/27 07:36:08;;;;;;;2.13;1.92;;;;;;;;;;5014353;28;20388;-58
2022/06/27 07:38:38;;;;;;;3.35;1.92;;;;;;;;;;5015190;28;20030;-58
2022/06/27 07:41:07;;;;;;;3.30;2.08;;;;;;;;;;5013603;28;20053;-58
2022/06/27 07:43:34;;;;;;;5.82;2.15;;;;;;;;;;5022588;28;20104;-56
2022/06/27 07:46:01;;;;;;;4.25;1.90;;;;;;;;;;5025678;28;20030;-56
2022/06/27 07:48:27;;;;;;;4.30;2.22;;;;;;;;;;5019294;28;20502;-56
2022/06/27 07:50:54;;;;;;;3.03;2.45;;;;;;;;;;5018986;28;20084;-57
2022/06/27 07:53:20;;;;;;;4.70;2.20;;;;;;;;;;5022944;28;20121;-56
2022/06/27 07:56:03;;;;;;;3.38;2.30;;;;;;;;;;5021645;28;20041;-56
2022/06/27 07:58:35;;;;;;;3.95;2.22;;;;;;;;;;5017742;28;20034;-57
2022/06/27 08:01:04;;;;;;;5.10;2.10;;;;;;;;;;5021137;28;20084;-57
2022/06/27 08:03:39;;;;;;;5.47;2.08;;;;;;;;;;5021064;28;20026;-57
2022/06/27 08:06:31;;;;;;;3.05;2.10;;;;;;;;;;5021639;28;20061;-57
2022/06/27 08:09:03;;;;;;;2.85;2.20;;;;;;;;;;5019813;28;20037;-57
2022/06/27 08:11:32;;;;;;;4.03;2.10;;;;;;;;;;5018905;28;20084;-57
2022/06/27 08:14:03;;;;;;;2.17;1.95;;;;;;;;;;5021330;28;20034;-57
2022/06/27 08:16:30;;;;;;;3.05;1.90;;;;;;;;;;5021717;28;20108;-57
2022/06/27 08:18:56;;;;;;;4.03;3.15;;;;;;;;;;5017957;28;20057;-57
2022/06/27 08:21:25;;;;;;;5.60;2.30;;;;;;;;;;5024325;28;20037;-57
2022/06/27 08:24:00;;;;;;;2.35;1.88;;;;;;;;;;5023951;28;20097;-57
2022/06/27 08:26:27;;;;;;;3.72;2.35;;;;;;;;;;5023737;28;20049;-58
2022/06/27 08:28:58;;;;;;;5.68;1.65;;;;;;;;;;5027566;28;20037;-57
2022/06/27 08:31:25;;;;;;;4.10;2.10;;;;;;;;;;5027801;28;20033;-58
2022/06/27 08:33:55;;;;;;;2.10;1.90;;;;;;;;;;5026217;28;20064;-56
2022/06/27 08:36:27;;;;;;;2.47;2.13;;;;;;;;;;5027454;28;20494;-56
2022/06/27 08:38:53;;;;;;;3.75;2.60;;;;;;;;;;5020653;28;20120;-56
2022/06/27 08:41:21;;;;;;;3.97;2.10;;;;;;;;;;5016097;28;20116;-56
2022/06/27 08:44:00;;;;;;;3.10;2.22;;;;;;;;;;5014806;28;20790;-57
2022/06/27 08:46:34;;;;;;;3.28;2.35;;;;;;;;;;5015083;28;20053;-57
2022/06/27 08:48:59;;;;;;;2.55;2.00;;;;;;;;;;5025450;28;20507;-57
2022/06/27 08:51:26;;;;;;;3.90;2.25;;;;;;;;;;5020447;28;20037;-56
2022/06/27 08:53:52;;;;;;;3.08;2.00;;;;;;;;;;5018919;28;20056;-57
2022/06/27 08:56:19;;;;;;;3.40;1.95;;;;;;;;;;5014813;28;20030;-57
2022/06/27 08:58:46;;;;;;;2.72;2.35;;;;;;;;;;5017451;28;20070;-56
2022/06/27 09:01:16;;;;;;;3.47;2.80;;;;;;;;;;5015361;28;20036;-57
2022/06/27 09:03:58;;;;;;;2.88;2.40;;;;;;;;;;5014024;28;20436;-56
2022/06/27 09:06:23;;;;;;;5.18;2.60;;;;;;;;;;5012327;28;20399;-56
2022/06/27 09:08:55;;;;;;;4.13;2.17;;;;;;;;;;5018788;28;20024;-57
2022/06/27 09:12:08;;;;;;;2.40;2.10;;;;;;;;;;5019866;28;20033;-57
2022/06/27 09:14:37;;;;;;;2.78;1.90;;;;;;;;;;5012419;28;20518;-57
2022/06/27 09:17:23;;;;;;;3.08;2.25;;;;;;;;;;5008680;28;20116;-58
2022/06/27 09:19:56;;;;;;;3.90;2.10;;;;;;;;;;5016084;28;20542;-58
2022/06/27 09:22:28;;;;;;;2.15;1.85;;;;;;;;;;5017763;28;20121;-58
2022/06/27 09:25:04;;;;;;;4.20;1.80;;;;;;;;;;5014792;28;20482;-58
2022/06/27 09:27:39;;;;;;;3.38;2.28;;;;;;;;;;5021324;28;20033;-58
2022/06/27 09:30:23;;;;;;;3.55;2.30;;;;;;;;;;5027919;28;20476;-58
2022/06/27 09:32:59;;;;;;;4.72;2.30;;;;;;;;;;5013395;28;20021;-56
2022/06/27 09:35:29;;;;;;;3.65;2.42;;;;;;;;;;5013436;28;20018;-57
2022/06/27 09:38:01;;;;;;;5.93;2.30;;;;;;;;;;5012554;28;20411;-57
2022/06/27 09:40:30;;;;;;;5.85;1.92;;;;;;;;;;5012339;28;20083;-56
2022/06/27 09:42:57;;;;;;;8.30;2.23;;;;;;;;;;5015321;28;20045;-57
2022/06/27 09:45:24;;;;;;;5.20;2.50;;;;;;;;;;5014706;28;20028;-57
2022/06/27 09:47:58;;;;;;;3.67;2.35;;;;;;;;;;5016158;28;20407;-57
2022/06/27 09:50:25;;;;;;;2.83;2.20;;;;;;;;;;5012638;28;20419;-57
2022/06/27 09:52:51;;;;;;;4.13;2.00;;;;;;;;;;5017090;28;20072;-57
2022/06/27 09:55:20;;;;;;;3.92;2.13;;;;;;;;;;5017022;28;20093;-57
2022/06/27 09:57:46;;;;;;;3.58;1.83;;;;;;;;;;5020614;28;20361;-57
2022/06/27 10:00:13;;;;;;;3.85;2.20;;;;;;;;;;5017867;28;20048;-57
2022/06/27 10:02:39;;;;;;;4.47;2.10;;;;;;;;;;5013325;28;20653;-57
2022/06/27 10:05:05;;;;;;;5.10;1.98;;;;;;;;;;5017492;28;20033;-57
2022/06/27 10:07:31;;;;;;;2.85;2.15;;;;;;;;;;5018180;28;20119;-59
2022/06/27 10:09:57;;;;;;;9.02;3.03;;;;;;;;;;5020378;28;20237;-57
2022/06/27 10:12:34;;;;;;;3.05;2.30;;;;;;;;;;5014481;28;20533;-57
2022/06/27 10:15:09;;;;;;;4.45;2.28;;;;;;;;;;5019639;28;20034;-57
2022/06/27 10:17:49;;;;;;;4.80;2.60;;;;;;;;;;5021968;28;20033;-57
2022/06/27 10:20:25;;;;;;;3.78;2.10;;;;;;;;;;5016436;28;20137;-57
2022/06/27 10:23:09;;;;;;;6.75;2.35;;;;;;;;;;5024571;28;20026;-57
2022/06/27 10:25:41;;;;;;;3.90;2.20;;;;;;;;;;5023275;28;20068;-57
2022/06/27 10:28:13;;;;;;;2.55;2.10;;;;;;;;;;5027501;28;20045;-58
2022/06/27 10:30:43;;;;;;;2.15;1.85;;;;;;;;;;5029575;28;20095;-58
2022/06/27 10:33:21;;;;;;;4.28;2.33;;;;;;;;;;5028536;28;20076;-58
2022/06/27 10:35:59;;;;;;;3.22;1.80;;;;;;;;;;5027639;28;20036;-58
2022/06/27 10:38:28;;;;;;;3.92;2.15;;;;;;;;;;5029170;28;20102;-57
2022/06/27 10:40:55;;;;;;;3.92;2.17;;;;;;;;;;5023661;28;20087;-58
2022/06/27 10:43:36;;;;;;;3.45;2.60;;;;;;;;;;5024360;28;20024;-57
2022/06/27 10:46:22;;;;;;;2.97;2.40;;;;;;;;;;5025914;28;20021;-58
2022/06/27 10:48:53;;;;;;;2.78;2.17;;;;;;;;;;5027309;28;20120;-59
2022/06/27 10:51:18;;;;;;;3.58;2.17;;;;;;;;;;5022569;28;20029;-57
2022/06/27 10:53:44;;;;;;;2.92;2.10;;;;;;;;;;5027436;28;20589;-57
2022/06/27 10:56:28;;;;;;;3.65;2.10;;;;;;;;;;5024415;28;20029;-58
2022/06/27 10:58:54;;;;;;;5.05;2.72;;;;;;;;;;5021238;28;20462;-57
2022/06/27 11:01:21;;;;;;;2.45;2.10;;;;;;;;;;5024535;28;20030;-58
2022/06/27 11:03:47;;;;;;;5.72;2.50;;;;;;;;;;5023519;28;20056;-58
2022/06/27 11:06:16;;;;;;;3.10;2.80;;;;;;;;;;5017908;28;20038;-58
2022/06/27 11:08:44;;;;;;;5.07;2.50;;;;;;;;;;5025639;28;20491;-58
2022/06/27 11:11:24;;;;;;;4.13;2.43;;;;;;;;;;5022946;28;20049;-58
2022/06/27 11:13:54;;;;;;;3.67;2.60;;;;;;;;;;5023159;28;20397;-58
2022/06/27 11:16:32;;;;;;;3.90;2.65;;;;;;;;;;5027677;28;20116;-58
2022/06/27 11:20:04;;;;;;;5.63;2.40;;;;;;;;;;5018870;28;20423;-58
2022/06/27 11:21:50;;;;;;;3.80;2.67;;;;;;;;;;5023012;28;20495;-57
2022/06/27 11:24:15;;;;;;;2.80;2.42;;;;;;;;;;5025943;28;20041;-58
2022/06/27 11:26:50;;;;;;;4.32;2.50;;;;;;;;;;5026875;28;20037;-58
2022/06/27 11:32:03;;;;;;;5.47;2.80;;;;;;;;;;5026978;28;20083;-58
2022/06/27 11:34:32;;;;;;;6.63;2.70;;;;;;;;;;5025654;28;20028;-57
2022/06/27 11:36:59;;;;;;;3.70;3.22;;;;;;;;;;5021997;28;20033;-58
2022/06/27 11:39:28;;;;;;;3.53;2.70;;;;;;;;;;5014465;28;20061;-58
2022/06/27 11:41:59;;;;;;;4.97;2.80;;;;;;;;;;5018385;28;20135;-58
2022/06/27 11:44:25;;;;;;;4.57;2.78;;;;;;;;;;5015319;28;20049;-58
2022/06/27 11:46:52;;;;;;;3.08;2.50;;;;;;;;;;5015291;28;20045;-58
2022/06/27 11:49:28;;;;;;;3.03;2.60;;;;;;;;;;5012457;28;20403;-58
2022/06/27 11:51:58;;;;;;;2.92;2.72;;;;;;;;;;5018628;28;20030;-58
2022/06/27 11:54:24;;;;;;;4.40;2.58;;;;;;;;;;5013633;28;20026;-58
2022/06/27 11:56:51;;;;;;;3.03;2.80;;;;;;;;;;5012870;28;20087;-58
2022/06/27 11:59:18;;;;;;;3.10;2.60;;;;;;;;;;5016743;28;20072;-58
2022/06/27 12:02:01;;;;;;;3.17;2.45;;;;;;;;;;5021487;28;20029;-58
2022/06/27 12:04:33;;;;;;;4.63;2.53;;;;;;;;;;5015303;28;20075;-58
2022/06/27 12:07:09;;;;;;;4.43;2.85;;;;;;;;;;5015481;28;20119;-58
2022/06/27 12:09:51;;;;;;;4.88;2.50;;;;;;;;;;5017192;28;20057;-58
2022/06/27 12:12:21;;;;;;;4.65;2.50;;;;;;;;;;5015375;28;20034;-58
2022/06/27 12:14:49;;;;;;;3.75;2.88;;;;;;;;;;5014537;28;20029;-58
2022/06/27 12:17:15;;;;;;;5.10;3.00;;;;;;;;;;5016767;28;20117;-58
2022/06/27 12:19:41;;;;;;;3.60;3.30;;;;;;;;;;5022255;28;20458;-59
2022/06/27 12:22:08;;;;;;;3.90;3.35;;;;;;;;;;5022488;28;20036;-58
2022/06/27 12:24:34;;;;;;;3.92;3.15;;;;;;;;;;5025714;28;20022;-58
2022/06/27 12:26:59;;;;;;;5.47;3.15;;;;;;;;;;5023845;28;20388;-58
2022/06/27 12:29:25;;;;;;;4.40;3.65;;;;;;;;;;5024246;28;20140;-58
2022/06/27 12:31:50;;;;;;;6.72;3.70;;;;;;;;;;5021021;28;20247;-58
2022/06/27 12:34:16;;;;;;;7.10;3.70;;;;;;;;;;5018169;28;20032;-58
2022/06/27 12:36:41;;;;;;;4.53;3.47;;;;;;;;;;5021474;28;20530;-58
2022/06/27 12:39:07;;;;;;;6.53;4.20;;;;;;;;;;5018761;28;20048;-58
2022/06/27 12:41:35;;;;;;;6.45;3.63;;;;;;;;;;5022988;28;20110;-58
2022/06/27 12:44:01;;;;;;;5.38;3.60;;;;;;;;;;5018193;28;20044;-60
2022/06/27 12:46:26;;;;;;;4.72;3.75;;;;;;;;;;5020266;28;20030;-58
2022/06/27 12:48:54;;;;;;;6.43;3.60;;;;;;;;;;5015584;28;20029;-58
2022/06/27 12:51:20;;;;;;;5.60;3.73;;;;;;;;;;5023313;28;20025;-60
2022/06/27 12:53:46;;;;;;;7.63;3.78;;;;;;;;;;5026680;28;20021;-60
2022/06/27 12:56:13;;;;;;;5.57;4.90;;;;;;;;;;5020036;28;20033;-58
2022/06/27 12:58:39;;;;;;;7.13;4.70;;;;;;;;;;5019681;28;20061;-58
2022/06/27 13:01:04;;;;;;;5.60;4.20;;;;;;;;;;5014486;28;20119;-59
2022/06/27 13:03:30;;;;;;;4.85;4.07;;;;;;;;;;5023046;28;20487;-60
2022/06/27 13:05:55;;;;;;;4.60;3.83;;;;;;;;;;5021565;28;20079;-60
2022/06/27 13:08:21;;;;;;;5.43;4.10;;;;;;;;;;5018451;28;20048;-57
2022/06/27 13:11:31;;;;;;;5.07;3.78;;;;;;;;;;5022146;28;20033;-59
2022/06/27 13:13:56;;;;;;;5.93;3.80;;;;;;;;;;5018371;28;20045;-58
2022/06/27 13:16:22;;;;;;;4.95;3.92;;;;;;;;;;5020219;28;20376;-59
2022/06/27 13:18:47;;;;;;;5.93;3.70;;;;;;;;;;5009108;28;20030;-58
2022/06/27 13:21:13;;;;;;;7.30;3.78;;;;;;;;;;5019105;28;20029;-60
2022/06/27 13:23:38;;;;;;;4.85;3.70;;;;;;;;;;5023651;28;20055;-58
2022/06/27 13:26:04;;;;;;;6.82;4.03;;;;;;;;;;5026088;28;20044;-58
2022/06/27 13:28:31;;;;;;;5.53;4.18;;;;;;;;;;5022180;28;20078;-58
2022/06/27 13:30:56;;;;;;;5.28;3.83;;;;;;;;;;5011153;28;20034;-58
2022/06/27 13:33:22;;;;;;;6.45;4.20;;;;;;;;;;5010089;28;20040;-58
2022/06/27 13:35:47;;;;;;;7.13;4.03;;;;;;;;;;5007991;28;20041;-58
2022/06/27 13:38:13;;;;;;;7.43;4.25;;;;;;;;;;5013731;28;20159;-58
2022/06/27 13:40:39;;;;;;;5.45;3.65;;;;;;;;;;5010095;28;20032;-58
2022/06/27 13:43:04;;;;;;;6.80;3.75;;;;;;;;;;5015416;28;20037;-58
2022/06/27 13:45:30;;;;;;;6.45;4.05;;;;;;;;;;5010429;28;20029;-58
2022/06/27 13:47:56;;;;;;;5.60;4.05;;;;;;;;;;5009397;28;20030;-58
2022/06/27 13:50:22;;;;;;;4.70;4.13;;;;;;;;;;5009665;28;20248;-57
2022/06/27 13:52:47;;;;;;;5.30;4.00;;;;;;;;;;5009976;28;20438;-58
2022/06/27 13:55:13;;;;;;;4.78;4.03;;;;;;;;;;5010960;28;20061;-57
2022/06/27 13:57:39;;;;;;;6.45;3.95;;;;;;;;;;5019535;28;20036;-57
2022/06/27 14:00:05;;;;;;;6.30;3.67;;;;;;;;;;5017016;28;20108;-58
2022/06/27 14:02:31;;;;;;;8.25;3.75;;;;;;;;;;5016115;28;20634;-59
2022/06/27 14:04:56;;;;;;;5.13;3.92;;;;;;;;;;5017449;28;20116;-58
2022/06/27 14:10:09;;;;;;;4.20;3.80;;;;;;;;;;5020400;28;20040;-59
2022/06/27 14:12:36;;;;;;;5.68;3.83;;;;;;;;;;5022230;28;20029;-58
2022/06/27 14:15:02;;;;;;;8.02;4.28;;;;;;;;;;5016939;28;20034;-59
2022/06/27 14:17:27;;;;;;;5.25;3.75;;;;;;;;;;5020792;28;20025;-58
2022/06/27 14:19:53;;;;;;;6.15;3.85;;;;;;;;;;5019550;28;20018;-58
2022/06/27 14:22:18;;;;;;;7.15;3.88;;;;;;;;;;5017531;28;20031;-58
2022/06/27 14:24:44;;;;;;;4.50;4.05;;;;;;;;;;5012350;28;20396;-58
2022/06/27 14:27:09;;;;;;;4.60;3.70;;;;;;;;;;5019102;28;20072;-58
2022/06/27 14:29:35;;;;;;;4.88;3.67;;;;;;;;;;5021922;28;20071;-58
2022/06/27 14:32:01;;;;;;;6.75;3.95;;;;;;;;;;5028786;28;20509;-57
2022/06/27 14:34:26;;;;;;;5.95;4.00;;;;;;;;;;5023687;28;20052;-57
2022/06/27 14:36:51;;;;;;;4.80;4.07;;;;;;;;;;5022884;28;20348;-58
2022/06/27 14:39:17;;;;;;;5.90;3.78;;;;;;;;;;5017538;28;20126;-57
2022/06/27 14:41:43;;;;;;;6.93;3.97;;;;;;;;;;5017234;28;20029;-57
2022/06/27 14:44:09;;;;;;;5.10;3.83;;;;;;;;;;5019128;28;20475;-57
2022/06/27 14:46:35;;;;;;;5.75;4.22;;;;;;;;;;5015652;28;20075;-57
2022/06/27 14:49:01;;;;;;;5.38;3.90;;;;;;;;;;5026278;28;20032;-57
2022/06/27 14:51:26;;;;;;;5.80;3.40;;;;;;;;;;5026639;28;20113;-56
2022/06/27 14:53:52;;;;;;;5.85;4.10;;;;;;;;;;5026691;28;20106;-58
2022/06/27 14:56:17;;;;;;;5.00;4.05;;;;;;;;;;5025276;28;20117;-58
2022/06/27 14:58:43;;;;;;;6.35;3.78;;;;;;;;;;5028615;28;20537;-57